createdAt,value
2022-07-28T00:00:35.544Z,23.97
2022-07-28T00:01:38.297Z,23.96
2022-07-28T00:02:40.408Z,23.95
2022-07-28T00:03:42.424Z,23.94
2022-07-28T00:04:44.377Z,23.93
2022-07-28T00:05:46.329Z,23.92
2022-07-28T00:06:50.123Z,23.91
2022-07-28T00:07:51.974Z,23.90
2022-07-28T00:08:53.927Z,23.89
2022-07-28T00:10:00.387Z,23.87
2022-07-28T00:10:59.788Z,23.87
2022-07-28T00:12:01.730Z,23.86
2022-07-28T00:13:03.851Z,23.86
2022-07-28T00:14:07.483Z,23.85
2022-07-28T00:15:09.434Z,23.84
2022-07-28T00:16:11.858Z,23.84
2022-07-28T00:17:13.847Z,23.82
2022-07-28T00:18:15.688Z,23.81
2022-07-28T00:19:17.658Z,23.80
2022-07-28T00:20:20.221Z,23.80
2022-07-28T00:21:22.586Z,23.79
2022-07-28T00:22:24.534Z,23.79
2022-07-28T00:23:38.593Z,23.78
2022-07-28T00:24:30.182Z,23.78
2022-07-28T00:25:32.130Z,23.79
2022-07-28T00:26:34.287Z,23.79
2022-07-28T00:27:36.239Z,23.78
2022-07-28T00:28:38.190Z,23.78
2022-07-28T00:29:49.346Z,23.78
2022-07-28T00:30:43.937Z,23.77
2022-07-28T00:31:46.249Z,23.77
2022-07-28T00:32:48.257Z,23.76
2022-07-28T00:33:50.311Z,23.75
2022-07-28T00:34:53.558Z,23.75
2022-07-28T00:35:55.648Z,23.74
2022-07-28T00:36:58.017Z,23.73
2022-07-28T00:38:00.044Z,23.74
2022-07-28T00:39:02.230Z,23.73
2022-07-28T00:40:04.377Z,23.71
2022-07-28T00:41:06.331Z,23.68
2022-07-28T00:42:08.285Z,23.68
2022-07-28T00:43:10.243Z,23.69
2022-07-28T00:44:12.469Z,23.68
2022-07-28T00:45:14.758Z,23.67
2022-07-28T00:46:17.569Z,23.66
2022-07-28T00:47:19.691Z,23.66
2022-07-28T00:48:21.647Z,23.64
2022-07-28T00:49:23.624Z,23.64
2022-07-28T00:50:26.062Z,23.63
2022-07-28T00:51:28.010Z,23.62
2022-07-28T00:52:29.960Z,23.62
2022-07-28T00:53:31.910Z,23.61
2022-07-28T00:54:33.861Z,23.59
2022-07-28T00:56:03.035Z,23.59
2022-07-28T00:56:39.612Z,23.58
2022-07-28T00:57:41.569Z,23.57
2022-07-28T00:58:43.515Z,23.57
2022-07-28T00:59:45.469Z,23.56
2022-07-28T01:00:47.524Z,23.56
2022-07-28T01:01:50.079Z,23.56
2022-07-28T01:02:53.954Z,23.54
2022-07-28T01:03:56.202Z,23.54
2022-07-28T01:04:58.104Z,23.53
2022-07-28T01:06:00.057Z,23.53
2022-07-28T01:07:02.011Z,23.51
2022-07-28T01:08:03.956Z,23.52
2022-07-28T01:09:05.905Z,23.52
2022-07-28T01:10:09.302Z,23.51
2022-07-28T01:11:11.251Z,23.51
2022-07-28T01:12:13.198Z,23.50
2022-07-28T01:13:15.151Z,23.49
2022-07-28T01:14:17.736Z,23.47
2022-07-28T01:15:20.286Z,23.48
2022-07-28T01:16:23.712Z,23.46
2022-07-28T01:17:26.238Z,23.46
2022-07-28T01:18:28.193Z,23.45
2022-07-28T01:19:30.144Z,23.47
2022-07-28T01:20:32.509Z,23.46
2022-07-28T01:21:34.465Z,23.46
2022-07-28T01:22:36.409Z,23.46
2022-07-28T01:23:38.359Z,23.45
2022-07-28T01:24:40.212Z,23.46
2022-07-28T01:25:48.314Z,23.46
2022-07-28T01:26:46.267Z,23.46
2022-07-28T01:27:48.222Z,23.46
2022-07-28T01:28:50.174Z,23.46
2022-07-28T01:29:52.124Z,23.45
2022-07-28T01:30:54.236Z,23.44
2022-07-28T01:31:56.235Z,23.44
2022-07-28T01:32:58.191Z,23.43
2022-07-28T01:34:00.148Z,23.42
2022-07-28T01:35:04.035Z,23.41
2022-07-28T01:36:06.196Z,23.42
2022-07-28T01:37:08.146Z,23.41
2022-07-28T01:38:10.099Z,23.42
2022-07-28T01:39:12.052Z,23.42
2022-07-28T01:40:14.723Z,23.41
2022-07-28T01:41:16.674Z,23.41
2022-07-28T01:42:18.939Z,23.41
2022-07-28T01:43:21.104Z,23.41
2022-07-28T01:44:23.019Z,23.42
2022-07-28T01:45:26.742Z,23.42
2022-07-28T01:46:28.853Z,23.42
2022-07-28T01:47:30.743Z,23.41
2022-07-28T01:48:32.710Z,23.42
2022-07-28T01:49:34.754Z,23.40
2022-07-28T01:50:36.813Z,23.41
2022-07-28T01:51:38.760Z,23.40
2022-07-28T01:52:40.709Z,23.41
2022-07-28T01:53:42.660Z,23.40
2022-07-28T01:54:44.614Z,23.40
2022-07-28T01:55:46.469Z,23.40
2022-07-28T01:56:48.728Z,23.39
2022-07-28T01:57:50.691Z,23.38
2022-07-28T01:58:52.636Z,23.37
2022-07-28T01:59:54.592Z,23.38
2022-07-28T02:00:56.760Z,23.37
2022-07-28T02:01:58.775Z,23.38
2022-07-28T02:03:00.763Z,23.38
2022-07-28T02:04:02.713Z,23.38
2022-07-28T02:05:05.245Z,23.38
2022-07-28T02:06:07.645Z,23.37
2022-07-28T02:07:09.798Z,23.38
2022-07-28T02:08:11.750Z,23.37
2022-07-28T02:09:13.632Z,23.36
2022-07-28T02:10:16.679Z,23.36
2022-07-28T02:11:18.642Z,23.38
2022-07-28T02:12:20.591Z,23.36
2022-07-28T02:13:22.537Z,23.35
2022-07-28T02:14:24.493Z,23.35
2022-07-28T02:15:26.442Z,23.35
2022-07-28T02:16:28.959Z,23.34
2022-07-28T02:17:30.967Z,23.35
2022-07-28T02:18:33.025Z,23.35
2022-07-28T02:19:34.966Z,23.34
2022-07-28T02:20:37.228Z,23.34
2022-07-28T02:21:39.185Z,23.34
2022-07-28T02:22:41.133Z,23.34
2022-07-28T02:23:43.089Z,23.34
2022-07-28T02:24:45.034Z,23.34
2022-07-28T02:25:47.095Z,23.33
2022-07-28T02:26:49.454Z,23.33
2022-07-28T02:27:51.409Z,23.33
2022-07-28T02:28:53.354Z,23.32
2022-07-28T02:29:55.313Z,23.33
2022-07-28T02:30:57.512Z,23.34
2022-07-28T02:31:59.528Z,23.34
2022-07-28T02:33:02.911Z,23.34
2022-07-28T02:34:04.812Z,23.34
2022-07-28T02:35:09.362Z,23.35
2022-07-28T02:36:14.245Z,23.35
2022-07-28T02:37:16.970Z,23.35
2022-07-28T02:38:18.924Z,23.35
2022-07-28T02:39:20.873Z,23.35
2022-07-28T02:40:24.670Z,23.35
2022-07-28T02:41:26.925Z,23.36
2022-07-28T02:42:28.980Z,23.36
2022-07-28T02:43:50.150Z,23.36
2022-07-28T02:44:34.732Z,23.36
2022-07-28T02:45:36.680Z,23.36
2022-07-28T02:46:39.230Z,23.36
2022-07-28T02:47:41.203Z,23.36
2022-07-28T02:48:43.219Z,23.36
2022-07-28T02:49:45.206Z,23.35
2022-07-28T02:50:47.367Z,23.36
2022-07-28T02:51:49.328Z,23.36
2022-07-28T02:52:51.372Z,23.35
2022-07-28T02:53:53.328Z,23.35
2022-07-28T02:54:55.279Z,23.35
2022-07-28T02:55:57.231Z,23.36
2022-07-28T02:56:59.694Z,23.35
2022-07-28T02:58:01.644Z,23.37
2022-07-28T02:59:05.451Z,23.37
2022-07-28T03:00:09.239Z,23.38
2022-07-28T03:01:11.532Z,23.38
2022-07-28T03:02:13.550Z,23.39
2022-07-28T03:03:15.507Z,23.40
2022-07-28T03:04:17.857Z,23.39
2022-07-28T03:05:20.061Z,23.41
2022-07-28T03:06:28.682Z,23.41
2022-07-28T03:07:27.720Z,23.43
2022-07-28T03:08:29.673Z,23.44
2022-07-28T03:09:31.623Z,23.45
2022-07-28T03:10:34.815Z,23.43
2022-07-28T03:11:37.062Z,23.45
2022-07-28T03:12:39.018Z,23.47
2022-07-28T03:13:40.978Z,23.47
2022-07-28T03:14:42.915Z,23.49
2022-07-28T03:15:44.876Z,23.51
2022-07-28T03:16:50.005Z,23.51
2022-07-28T03:17:50.831Z,23.51
2022-07-28T03:18:52.787Z,23.57
2022-07-28T03:19:54.735Z,23.59
2022-07-28T03:20:57.317Z,23.60
2022-07-28T03:21:59.354Z,23.61
2022-07-28T03:23:01.307Z,23.63
2022-07-28T03:24:03.258Z,23.62
2022-07-28T03:25:05.210Z,23.59
2022-07-28T03:26:09.134Z,23.61
2022-07-28T03:27:11.164Z,23.64
2022-07-28T03:28:13.116Z,23.67
2022-07-28T03:29:15.068Z,23.67
2022-07-28T03:30:17.736Z,23.69
2022-07-28T03:31:19.718Z,23.73
2022-07-28T03:32:21.744Z,23.73
2022-07-28T03:33:23.705Z,23.76
2022-07-28T03:34:25.651Z,23.78
2022-07-28T03:35:27.598Z,23.81
2022-07-28T03:36:29.765Z,23.84
2022-07-28T03:37:31.706Z,23.86
2022-07-28T03:38:33.662Z,23.89
2022-07-28T03:39:35.616Z,23.92
2022-07-28T03:40:37.777Z,23.94
2022-07-28T03:41:39.931Z,23.97
2022-07-28T03:42:41.886Z,23.99
2022-07-28T03:43:43.946Z,24.01
2022-07-28T03:44:45.893Z,24.02
2022-07-28T03:45:47.978Z,24.06
2022-07-28T03:46:50.411Z,24.08
2022-07-28T03:47:52.363Z,24.09
2022-07-28T03:48:54.353Z,24.11
2022-07-28T03:49:56.371Z,24.12
2022-07-28T03:50:58.632Z,24.14
2022-07-28T03:52:00.686Z,24.07
2022-07-28T03:53:02.639Z,24.15
2022-07-28T03:54:04.563Z,24.17
2022-07-28T03:55:06.539Z,24.17
2022-07-28T03:56:09.314Z,24.18
2022-07-28T03:57:11.266Z,24.20
2022-07-28T03:58:13.222Z,24.22
2022-07-28T03:59:15.172Z,24.26
2022-07-28T04:00:18.154Z,24.28
2022-07-28T04:01:20.145Z,24.30
2022-07-28T04:02:22.181Z,24.31
2022-07-28T04:03:42.453Z,24.32
2022-07-28T04:04:31.079Z,24.33
2022-07-28T04:05:33.033Z,24.36
2022-07-28T04:06:35.187Z,24.39
2022-07-28T04:07:37.141Z,24.40
2022-07-28T04:08:39.093Z,24.42
2022-07-28T04:09:41.046Z,24.44
2022-07-28T04:10:43.201Z,24.47
2022-07-28T04:11:45.153Z,24.48
2022-07-28T04:12:47.096Z,24.50
2022-07-28T04:13:49.049Z,24.50
2022-07-28T04:14:51.002Z,24.52
2022-07-28T04:15:52.951Z,24.52
2022-07-28T04:16:55.146Z,24.54
2022-07-28T04:17:57.164Z,24.53
2022-07-28T04:18:59.122Z,24.56
2022-07-28T04:20:01.077Z,24.58
2022-07-28T04:21:03.025Z,24.61
2022-07-28T04:22:04.975Z,24.62
2022-07-28T04:23:06.927Z,24.63
2022-07-28T04:24:08.910Z,24.65
2022-07-28T04:25:10.829Z,24.68
2022-07-28T04:26:13.088Z,24.69
2022-07-28T04:27:14.944Z,24.72
2022-07-28T04:28:16.897Z,24.75
2022-07-28T04:29:27.131Z,24.76
2022-07-28T04:30:24.435Z,24.78
2022-07-28T04:31:26.493Z,24.80
2022-07-28T04:32:28.597Z,24.81
2022-07-28T04:33:30.571Z,24.82
2022-07-28T04:34:32.497Z,24.84
2022-07-28T04:35:34.451Z,24.86
2022-07-28T04:36:36.607Z,24.87
2022-07-28T04:37:38.566Z,24.89
2022-07-28T04:38:40.521Z,24.92
2022-07-28T04:39:42.472Z,24.93
2022-07-28T04:40:44.543Z,24.96
2022-07-28T04:41:46.883Z,25.00
2022-07-28T04:42:48.837Z,25.02
2022-07-28T04:43:50.793Z,25.04
2022-07-28T04:44:52.748Z,25.07
2022-07-28T04:45:54.885Z,25.10
2022-07-28T04:46:57.157Z,25.14
2022-07-28T04:47:59.007Z,25.17
2022-07-28T04:49:01.018Z,25.21
2022-07-28T04:50:03.323Z,25.24
2022-07-28T04:51:05.273Z,25.28
2022-07-28T04:52:07.233Z,25.30
2022-07-28T04:53:09.176Z,25.33
2022-07-28T04:54:11.434Z,25.37
2022-07-28T04:55:13.703Z,25.41
2022-07-28T04:56:16.269Z,25.44
2022-07-28T04:57:18.117Z,25.48
2022-07-28T04:58:21.169Z,25.50
2022-07-28T04:59:24.687Z,25.52
2022-07-28T05:00:27.556Z,25.55
2022-07-28T05:01:30.328Z,25.57
2022-07-28T05:02:32.493Z,25.59
2022-07-28T05:03:36.479Z,25.61
2022-07-28T05:04:38.371Z,25.63
2022-07-28T05:05:40.389Z,25.66
2022-07-28T05:06:42.750Z,25.69
2022-07-28T05:07:44.819Z,25.73
2022-07-28T05:08:46.763Z,25.75
2022-07-28T05:09:48.715Z,25.76
2022-07-28T05:10:50.870Z,25.76
2022-07-28T05:11:52.821Z,25.80
2022-07-28T05:12:54.772Z,25.83
2022-07-28T05:13:56.623Z,25.83
2022-07-28T05:14:58.580Z,25.87
2022-07-28T05:16:00.529Z,25.89
2022-07-28T05:17:02.499Z,25.90
2022-07-28T05:18:04.405Z,25.91
2022-07-28T05:19:06.289Z,25.93
2022-07-28T05:20:08.859Z,25.96
2022-07-28T05:21:11.008Z,25.98
2022-07-28T05:22:12.895Z,25.99
2022-07-28T05:23:15.737Z,26.01
2022-07-28T05:24:17.818Z,26.00
2022-07-28T05:25:19.958Z,26.00
2022-07-28T05:26:22.819Z,26.03
2022-07-28T05:27:24.770Z,26.05
2022-07-28T05:28:26.620Z,26.06
2022-07-28T05:29:35.140Z,26.07
2022-07-28T05:30:32.472Z,26.08
2022-07-28T05:31:34.443Z,26.10
2022-07-28T05:32:36.480Z,26.12
2022-07-28T05:33:38.432Z,26.14
2022-07-28T05:34:40.390Z,26.16
2022-07-28T05:35:42.345Z,26.17
2022-07-28T05:36:44.599Z,26.19
2022-07-28T05:37:46.547Z,26.21
2022-07-28T05:38:48.499Z,26.23
2022-07-28T05:39:50.467Z,26.25
2022-07-28T05:40:52.713Z,26.28
2022-07-28T05:41:54.664Z,26.29
2022-07-28T05:42:56.617Z,26.30
2022-07-28T05:43:58.986Z,26.32
2022-07-28T05:45:00.835Z,26.33
2022-07-28T05:46:03.264Z,26.34
2022-07-28T05:47:05.462Z,26.37
2022-07-28T05:48:07.403Z,26.39
2022-07-28T05:49:09.499Z,26.40
2022-07-28T05:50:12.207Z,26.40
2022-07-28T05:51:14.184Z,26.42
2022-07-28T05:52:16.135Z,26.42
2022-07-28T05:53:18.088Z,26.43
2022-07-28T05:54:19.962Z,26.45
2022-07-28T05:55:21.895Z,26.47
2022-07-28T05:56:25.685Z,26.48
2022-07-28T05:57:27.638Z,26.50
2022-07-28T05:58:29.594Z,26.51
2022-07-28T05:59:31.564Z,26.52
2022-07-28T06:00:34.012Z,26.52
2022-07-28T06:01:35.928Z,26.55
2022-07-28T06:02:37.945Z,26.56
2022-07-28T06:03:42.296Z,26.57
2022-07-28T06:04:43.779Z,26.59
2022-07-28T06:06:13.863Z,26.60
2022-07-28T06:06:49.533Z,26.61
2022-07-28T06:07:51.476Z,26.63
2022-07-28T06:08:53.425Z,26.63
2022-07-28T06:09:55.478Z,26.65
2022-07-28T06:10:57.647Z,26.66
2022-07-28T06:11:59.684Z,26.68
2022-07-28T06:13:01.636Z,26.69
2022-07-28T06:14:03.590Z,26.70
2022-07-28T06:15:05.445Z,26.70
2022-07-28T06:16:12.777Z,26.72
2022-07-28T06:17:11.801Z,26.73
2022-07-28T06:18:13.753Z,26.74
2022-07-28T06:19:15.723Z,26.75
2022-07-28T06:20:18.687Z,26.76
2022-07-28T06:21:21.257Z,26.77
2022-07-28T06:22:23.204Z,26.78
2022-07-28T06:23:25.162Z,26.78
2022-07-28T06:24:27.108Z,26.79
2022-07-28T06:25:29.071Z,26.79
2022-07-28T06:26:32.662Z,26.81
2022-07-28T06:27:34.719Z,26.82
2022-07-28T06:28:36.668Z,26.83
2022-07-28T06:29:38.626Z,26.84
2022-07-28T06:30:41.801Z,26.85
2022-07-28T06:31:43.821Z,26.87
2022-07-28T06:32:45.809Z,26.87
2022-07-28T06:33:47.867Z,26.88
2022-07-28T06:34:49.815Z,26.90
2022-07-28T06:35:51.771Z,26.91
2022-07-28T06:36:53.929Z,26.92
2022-07-28T06:37:55.884Z,26.93
2022-07-28T06:38:58.547Z,26.94
2022-07-28T06:40:00.511Z,26.95
2022-07-28T06:41:02.454Z,26.96
2022-07-28T06:42:04.408Z,26.96
2022-07-28T06:43:06.688Z,26.98
2022-07-28T06:44:08.632Z,26.98
2022-07-28T06:45:19.696Z,27.00
2022-07-28T06:46:15.289Z,27.01
2022-07-28T06:47:17.305Z,27.03
2022-07-28T06:48:19.298Z,27.04
2022-07-28T06:49:21.272Z,27.05
2022-07-28T06:50:26.017Z,27.08
2022-07-28T06:51:27.328Z,27.08
2022-07-28T06:52:29.254Z,27.09
2022-07-28T06:53:33.672Z,27.10
2022-07-28T06:54:35.004Z,27.12
2022-07-28T06:55:36.954Z,27.13
2022-07-28T06:56:39.523Z,27.14
2022-07-28T06:57:41.569Z,27.16
2022-07-28T06:58:47.040Z,27.17
2022-07-28T06:59:47.216Z,27.18
2022-07-28T07:00:49.430Z,27.19
2022-07-28T07:01:51.548Z,27.21
2022-07-28T07:02:53.416Z,27.23
2022-07-28T07:03:55.363Z,27.25
2022-07-28T07:04:57.394Z,27.27
2022-07-28T07:05:59.343Z,27.27
2022-07-28T07:07:01.504Z,27.29
2022-07-28T07:08:04.754Z,27.30
2022-07-28T07:09:07.076Z,27.32
2022-07-28T07:10:10.841Z,27.33
2022-07-28T07:11:12.787Z,27.34
2022-07-28T07:12:14.750Z,27.36
2022-07-28T07:13:16.694Z,27.36
2022-07-28T07:14:19.161Z,27.38
2022-07-28T07:15:21.321Z,27.39
2022-07-28T07:16:23.744Z,27.41
2022-07-28T07:17:25.734Z,27.43
2022-07-28T07:18:30.463Z,27.44
2022-07-28T07:19:32.408Z,27.46
2022-07-28T07:20:35.991Z,27.47
2022-07-28T07:21:38.875Z,27.49
2022-07-28T07:22:40.823Z,27.49
2022-07-28T07:23:42.974Z,27.51
2022-07-28T07:24:44.930Z,27.51
2022-07-28T07:25:47.520Z,27.52
2022-07-28T07:26:49.657Z,27.54
2022-07-28T07:27:51.611Z,27.54
2022-07-28T07:28:53.565Z,27.56
2022-07-28T07:29:55.508Z,27.59
2022-07-28T07:30:57.939Z,27.59
2022-07-28T07:31:59.968Z,27.60
2022-07-28T07:33:01.986Z,27.62
2022-07-28T07:34:05.683Z,27.62
2022-07-28T07:35:07.635Z,27.64
2022-07-28T07:36:09.991Z,27.66
2022-07-28T07:37:11.905Z,27.67
2022-07-28T07:38:13.802Z,27.71
2022-07-28T07:39:15.752Z,27.73
2022-07-28T07:40:18.824Z,27.76
2022-07-28T07:41:21.000Z,27.78
2022-07-28T07:42:24.615Z,27.79
2022-07-28T07:43:26.835Z,27.82
2022-07-28T07:44:28.793Z,27.84
2022-07-28T07:45:30.838Z,27.87
2022-07-28T07:46:33.200Z,27.88
2022-07-28T07:47:35.261Z,27.89
2022-07-28T07:48:37.321Z,27.89
2022-07-28T07:49:43.476Z,27.91
2022-07-28T07:50:43.055Z,27.91
2022-07-28T07:51:45.012Z,27.94
2022-07-28T07:52:46.965Z,27.94
2022-07-28T07:53:48.929Z,27.94
2022-07-28T07:54:50.868Z,27.95
2022-07-28T07:55:52.820Z,27.97
2022-07-28T07:56:54.981Z,27.99
2022-07-28T07:57:56.932Z,28.01
2022-07-28T07:58:58.880Z,28.02
2022-07-28T08:00:00.841Z,28.04
2022-07-28T08:01:02.787Z,28.04
2022-07-28T08:02:04.795Z,28.06
2022-07-28T08:03:11.144Z,28.08
2022-07-28T08:04:10.566Z,28.10
2022-07-28T08:05:12.658Z,28.10
2022-07-28T08:06:16.957Z,28.13
2022-07-28T08:07:22.085Z,28.13
2022-07-28T08:08:24.433Z,28.14
2022-07-28T08:09:26.404Z,28.16
2022-07-28T08:10:30.085Z,28.15
2022-07-28T08:11:32.047Z,28.18
2022-07-28T08:12:33.994Z,28.18
2022-07-28T08:13:35.952Z,28.19
2022-07-28T08:14:37.900Z,28.21
2022-07-28T08:15:39.897Z,28.22
2022-07-28T08:16:42.063Z,28.24
2022-07-28T08:17:44.064Z,28.25
2022-07-28T08:18:46.017Z,28.25
2022-07-28T08:19:47.967Z,28.25
2022-07-28T08:20:50.233Z,28.26
2022-07-28T08:21:52.244Z,28.28
2022-07-28T08:22:54.852Z,28.30
2022-07-28T08:23:57.720Z,28.30
2022-07-28T08:24:59.678Z,28.32
2022-07-28T08:26:01.634Z,28.32
2022-07-28T08:27:03.587Z,28.33
2022-07-28T08:28:05.555Z,28.33
2022-07-28T08:29:07.616Z,28.33
2022-07-28T08:30:10.153Z,28.35
2022-07-28T08:31:12.129Z,28.37
2022-07-28T08:32:14.368Z,28.38
2022-07-28T08:33:16.323Z,28.40
2022-07-28T08:34:26.211Z,28.43
2022-07-28T08:35:33.006Z,28.44
2022-07-28T08:36:26.378Z,28.46
2022-07-28T08:37:28.330Z,28.48
2022-07-28T08:38:30.269Z,28.49
2022-07-28T08:39:32.226Z,28.50
2022-07-28T08:40:34.278Z,28.52
2022-07-28T08:41:36.128Z,28.54
2022-07-28T08:42:37.981Z,28.55
2022-07-28T08:43:39.931Z,28.56
2022-07-28T08:44:41.881Z,28.58
2022-07-28T08:45:43.631Z,28.59
2022-07-28T08:46:45.730Z,28.61
2022-07-28T08:48:10.165Z,28.62
2022-07-28T08:48:51.675Z,28.66
2022-07-28T08:49:53.695Z,28.68
2022-07-28T08:50:55.851Z,28.70
2022-07-28T08:51:57.709Z,28.71
2022-07-28T08:53:00.985Z,28.71
2022-07-28T08:54:02.934Z,28.73
2022-07-28T08:55:05.504Z,28.75
2022-07-28T08:56:07.972Z,28.75
2022-07-28T08:57:09.917Z,28.77
2022-07-28T08:58:11.770Z,28.79
2022-07-28T08:59:13.725Z,28.81
2022-07-28T09:00:17.523Z,28.81
2022-07-28T09:01:19.399Z,28.84
2022-07-28T09:02:21.513Z,28.86
2022-07-28T09:03:23.678Z,28.85
2022-07-28T09:04:25.634Z,28.85
2022-07-28T09:05:27.494Z,28.85
2022-07-28T09:06:30.470Z,28.84
2022-07-28T09:07:32.420Z,28.85
2022-07-28T09:08:34.374Z,28.86
2022-07-28T09:09:36.217Z,28.88
2022-07-28T09:10:39.294Z,28.89
2022-07-28T09:11:41.040Z,28.90
2022-07-28T09:12:42.790Z,28.90
2022-07-28T09:13:44.539Z,28.91
2022-07-28T09:14:46.490Z,28.93
2022-07-28T09:15:48.580Z,28.93
2022-07-28T09:16:50.712Z,28.94
2022-07-28T09:17:52.538Z,28.96
2022-07-28T09:18:54.502Z,28.97
2022-07-28T09:19:56.358Z,28.98
2022-07-28T09:20:58.632Z,28.98
2022-07-28T09:22:00.684Z,29.00
2022-07-28T09:23:03.033Z,29.01
2022-07-28T09:24:05.077Z,29.03
2022-07-28T09:25:06.939Z,29.04
2022-07-28T09:26:11.409Z,29.05
2022-07-28T09:27:12.897Z,29.07
2022-07-28T09:28:14.948Z,29.10
2022-07-28T09:29:16.895Z,29.06
2022-07-28T09:30:20.596Z,29.06
2022-07-28T09:31:22.599Z,29.11
2022-07-28T09:32:24.601Z,29.10
2022-07-28T09:33:41.375Z,29.10
2022-07-28T09:34:30.958Z,29.12
2022-07-28T09:35:32.808Z,29.13
2022-07-28T09:36:34.821Z,29.15
2022-07-28T09:37:36.723Z,29.16
2022-07-28T09:38:38.573Z,29.17
2022-07-28T09:39:40.519Z,29.20
2022-07-28T09:40:42.718Z,29.22
2022-07-28T09:41:46.472Z,29.22
2022-07-28T09:42:48.421Z,29.25
2022-07-28T09:43:54.897Z,29.25
2022-07-28T09:45:20.282Z,29.27
2022-07-28T09:45:57.710Z,29.30
2022-07-28T09:47:00.110Z,29.31
2022-07-28T09:49:28.542Z,29.37
2022-07-28T09:50:27.894Z,29.36
2022-07-28T09:51:29.755Z,29.40
2022-07-28T09:52:31.703Z,29.43
2022-07-28T09:53:33.554Z,29.43
2022-07-28T09:54:40.570Z,29.44
2022-07-28T09:55:39.068Z,29.46
2022-07-28T09:56:41.713Z,29.48
2022-07-28T09:57:45.949Z,29.49
2022-07-28T09:58:47.365Z,29.50
2022-07-28T09:59:53.599Z,29.51
2022-07-28T10:00:53.257Z,29.54
2022-07-28T10:01:55.371Z,29.56
2022-07-28T10:02:58.645Z,29.57
2022-07-28T10:04:02.777Z,29.58
2022-07-28T10:05:04.245Z,29.60
2022-07-28T10:06:06.398Z,29.62
2022-07-28T10:07:08.149Z,29.64
2022-07-28T10:08:10.103Z,29.67
2022-07-28T10:09:12.060Z,29.68
2022-07-28T10:10:14.735Z,29.72
2022-07-28T10:11:16.576Z,29.74
2022-07-28T10:12:18.531Z,29.77
2022-07-28T10:13:20.474Z,29.78
2022-07-28T10:14:22.326Z,29.81
2022-07-28T10:15:30.900Z,29.82
2022-07-28T10:16:31.638Z,29.85
2022-07-28T10:17:33.611Z,29.89
2022-07-28T10:18:35.563Z,29.91
2022-07-28T10:19:37.513Z,29.94
2022-07-28T10:20:39.569Z,29.96
2022-07-28T10:21:42.031Z,29.99
2022-07-28T10:22:43.786Z,30.00
2022-07-28T10:23:46.048Z,30.01
2022-07-28T10:24:47.994Z,30.03
2022-07-28T10:25:50.049Z,30.05
2022-07-28T10:26:52.208Z,30.07
2022-07-28T10:27:54.160Z,30.08
2022-07-28T10:28:56.323Z,30.10
2022-07-28T10:29:58.276Z,30.12
2022-07-28T10:31:00.353Z,30.14
2022-07-28T10:32:02.278Z,30.14
2022-07-28T10:33:04.136Z,30.17
2022-07-28T10:34:06.080Z,30.18
2022-07-28T10:35:07.953Z,30.20
2022-07-28T10:36:10.169Z,30.20
2022-07-28T10:37:12.143Z,30.24
2022-07-28T10:38:14.130Z,30.26
2022-07-28T10:39:16.154Z,30.28
2022-07-28T10:40:18.616Z,30.29
2022-07-28T10:41:20.664Z,30.33
2022-07-28T10:42:22.607Z,30.33
2022-07-28T10:43:24.773Z,30.34
2022-07-28T10:44:28.160Z,30.35
2022-07-28T10:45:55.239Z,30.36
2022-07-28T10:46:34.065Z,30.37
2022-07-28T10:47:36.639Z,30.38
2022-07-28T10:48:38.848Z,30.42
2022-07-28T10:49:40.954Z,30.42
2022-07-28T10:50:44.620Z,30.43
2022-07-28T10:52:02.618Z,30.44
2022-07-28T10:52:53.619Z,30.45
2022-07-28T10:53:54.569Z,30.46
2022-07-28T10:54:56.811Z,30.46
2022-07-28T10:55:58.772Z,30.47
2022-07-28T10:57:04.805Z,30.48
2022-07-28T10:58:11.410Z,30.49
2022-07-28T10:59:08.720Z,30.49
2022-07-28T11:00:13.527Z,30.51
2022-07-28T11:01:32.375Z,30.50
2022-07-28T11:02:18.641Z,30.49
2022-07-28T11:03:22.517Z,30.50
2022-07-28T11:04:29.398Z,30.51
2022-07-28T11:05:28.421Z,30.51
2022-07-28T11:06:31.295Z,30.52
2022-07-28T11:07:33.253Z,30.53
2022-07-28T11:08:35.422Z,30.52
2022-07-28T11:09:37.359Z,30.54
2022-07-28T11:10:39.517Z,30.55
2022-07-28T11:11:41.477Z,30.54
2022-07-28T11:12:43.834Z,30.55
2022-07-28T11:13:45.783Z,30.54
2022-07-28T11:14:51.534Z,30.54
2022-07-28T11:15:54.138Z,30.54
2022-07-28T11:16:56.518Z,30.54
2022-07-28T11:17:59.335Z,30.55
2022-07-28T11:19:01.599Z,30.54
2022-07-28T11:21:09.577Z,30.56
2022-07-28T11:22:12.871Z,30.56
2022-07-28T11:23:16.875Z,30.56
2022-07-28T11:24:18.931Z,30.56
2022-07-28T11:25:22.680Z,30.57
2022-07-28T11:26:25.701Z,30.57
2022-07-28T11:27:27.662Z,30.57
2022-07-28T11:28:29.607Z,30.57
2022-07-28T11:29:31.561Z,30.57
2022-07-28T11:30:33.830Z,30.58
2022-07-28T11:31:35.797Z,30.58
2022-07-28T11:32:44.045Z,30.61
2022-07-28T11:33:46.887Z,30.60
2022-07-28T11:34:45.520Z,30.62
2022-07-28T11:35:47.475Z,30.62
2022-07-28T11:36:49.631Z,30.63
2022-07-28T11:37:51.580Z,30.64
2022-07-28T11:38:53.533Z,30.64
2022-07-28T11:39:55.486Z,30.65
2022-07-28T11:40:57.654Z,30.65
2022-07-28T11:41:59.611Z,30.66
2022-07-28T11:43:02.162Z,30.65
2022-07-28T11:44:05.394Z,30.66
2022-07-28T11:45:09.143Z,30.68
2022-07-28T11:46:13.987Z,30.67
2022-07-28T11:47:17.868Z,30.67
2022-07-28T11:48:19.815Z,30.69
2022-07-28T11:49:21.810Z,30.69
2022-07-28T11:50:24.131Z,30.69
2022-07-28T11:51:26.074Z,30.70
2022-07-28T11:52:29.164Z,30.70
2022-07-28T11:53:31.110Z,30.71
2022-07-28T11:54:33.061Z,30.71
2022-07-28T11:55:49.415Z,30.72
2022-07-28T11:56:39.121Z,30.71
2022-07-28T11:57:41.273Z,30.72
2022-07-28T11:58:43.231Z,30.72
2022-07-28T11:59:47.297Z,30.71
2022-07-28T12:00:49.105Z,30.72
2022-07-28T12:01:51.253Z,30.72
2022-07-28T12:02:54.044Z,30.72
2022-07-28T12:03:56.838Z,30.73
2022-07-28T12:04:59.940Z,30.74
2022-07-28T12:06:02.126Z,30.73
2022-07-28T12:07:04.069Z,30.73
2022-07-28T12:08:07.249Z,30.73
2022-07-28T12:09:09.202Z,30.71
2022-07-28T12:10:17.914Z,30.71
2022-07-28T12:11:16.831Z,30.71
2022-07-28T12:12:18.852Z,30.68
2022-07-28T12:13:20.801Z,30.72
2022-07-28T12:14:22.759Z,30.71
2022-07-28T12:15:24.714Z,30.71
2022-07-28T12:16:27.310Z,30.69
2022-07-28T12:17:30.148Z,30.68
2022-07-28T12:18:32.917Z,30.66
2022-07-28T12:19:36.711Z,30.66
2022-07-28T12:20:40.120Z,30.65
2022-07-28T12:21:46.113Z,30.64
2022-07-28T12:22:45.850Z,30.64
2022-07-28T12:23:49.435Z,30.65
2022-07-28T12:24:51.804Z,30.67
2022-07-28T12:25:54.488Z,30.68
2022-07-28T12:26:56.561Z,30.68
2022-07-28T12:27:58.580Z,30.69
2022-07-28T12:29:02.372Z,30.69
2022-07-28T12:30:06.388Z,30.69
2022-07-28T12:31:09.129Z,30.71
2022-07-28T12:32:11.432Z,30.71
2022-07-28T12:33:13.456Z,30.71
2022-07-28T12:34:16.166Z,30.72
2022-07-28T12:35:18.543Z,30.73
2022-07-28T12:36:21.059Z,30.75
2022-07-28T12:37:23.031Z,30.74
2022-07-28T12:38:24.971Z,30.75
2022-07-28T12:39:27.029Z,30.76
2022-07-28T12:40:30.812Z,30.77
2022-07-28T12:41:32.974Z,30.79
2022-07-28T12:42:34.927Z,30.78
2022-07-28T12:43:36.883Z,30.79
2022-07-28T12:44:38.785Z,30.78
2022-07-28T12:45:40.833Z,30.78
2022-07-28T12:46:43.359Z,30.78
2022-07-28T12:47:45.301Z,30.80
2022-07-28T12:48:47.299Z,30.80
2022-07-28T12:49:49.413Z,30.79
2022-07-28T12:50:51.584Z,30.80
2022-07-28T12:51:53.531Z,30.79
2022-07-28T12:52:55.480Z,30.78
2022-07-28T12:53:57.429Z,30.79
2022-07-28T12:54:59.382Z,30.79
2022-07-28T12:56:01.343Z,30.78
2022-07-28T12:57:03.284Z,30.79
2022-07-28T12:58:05.234Z,30.78
2022-07-28T12:59:07.192Z,30.78
2022-07-28T13:00:10.091Z,30.78
2022-07-28T13:01:12.435Z,30.78
2022-07-28T13:02:14.456Z,30.79
2022-07-28T13:03:16.343Z,30.78
2022-07-28T13:04:18.702Z,30.80
2022-07-28T13:05:20.840Z,30.81
2022-07-28T13:06:24.530Z,30.81
2022-07-28T13:07:28.086Z,30.81
2022-07-28T13:08:31.832Z,30.82
2022-07-28T13:09:35.377Z,30.84
2022-07-28T13:10:37.667Z,30.84
2022-07-28T13:11:47.065Z,30.85
2022-07-28T13:12:43.826Z,30.85
2022-07-28T13:13:45.978Z,30.85
2022-07-28T13:14:47.932Z,30.85
2022-07-28T13:15:53.595Z,30.85
2022-07-28T13:16:56.030Z,30.86
2022-07-28T13:17:57.883Z,30.87
2022-07-28T13:18:59.840Z,30.87
2022-07-28T13:20:02.057Z,30.89
2022-07-28T13:21:04.048Z,30.87
2022-07-28T13:22:09.148Z,30.88
2022-07-28T13:23:09.574Z,30.88
2022-07-28T13:24:11.780Z,30.88
2022-07-28T13:25:13.810Z,30.88